Duże zachmurzenie
Niewielkie zachmurzenie i cirrusy
Niewielkie zachmurzenie i cirrusy
Częściowe zachmurzenie i kilka cirrusów
Częściowe zachmurzenie i kilka cirrusów
Częściowe zachmurzenie
Częściowe zachmurzenie
Niewielkie zachmurzenie
Częściowe zachmurzenie
(°C)
15°
15°
14°
14°
14°
14°
13°
13°
12°
12°
12°
12°
12°
12°
12°
12°
11°
11°
(°C)
SW
SW
SW
SW
SW
SSW
SSW
SSW
SSW
(km/h)
24-52
22-47
20-42
19-39
18-37
16-34
17-34
17-33
17-34
(mm)
0
0
0
0
0
0
0
0
0
(%)
10
0
10
16
21
5
5
5
0

Wysokość słońca

/ 25.2°
sun-icon
UV 6
05:24
21:46
Rosnący, garbaty księżyc (104°)
14:48
02:09

METAR dla Blaschette (ELLX)

Czas Warunki Temperatura/
Punkt rosy
Wiatr Widzialność Pogoda Chmury Ciśnienie Zmień Surowy
VFR 15°C / 6°C 220º 9kt 9700m - Clouds and Visibility OK 1009 No Significant change ELLX 151620Z 22009KT CAVOK 15/06 Q1009 NOSIG
VFR 15°C / 6°C 220º 13kt 9700m - Few Clouds 4800ft
Broken Clouds 5500ft
1009 No Significant change ELLX 151550Z 22013KT 9999 FEW048 BKN055 15/06 Q1009 NOSIG
VFR 16°C / 5°C 230º variable 190º to 250º 14kt 9700m - Clouds and Visibility OK 1009 Temporary: Wind 220º 15kt. Gust 25KT. ELLX 151520Z 23014KT 190V250 CAVOK 16/05 Q1009 TEMPO 22015G25KT
VFR 16°C / 5°C 220º 14kt 9700m - Clouds and Visibility OK 1009 Temporary: Wind 220º 15kt. Gust 25KT. ELLX 151450Z 22014KT CAVOK 16/05 Q1009 TEMPO 22015G25KT
VFR 16°C / 5°C 220º 13kt 9700m - Clouds and Visibility OK 1009 Temporary: Wind 220º 15kt. Gust 25KT. ELLX 151420Z 22013KT CAVOK 16/05 Q1009 TEMPO 22015G25KT
VFR 17°C / 5°C 220º 16kt 9700m - Clouds and Visibility OK 1009 Temporary: Wind 220º 15kt. Gust 25KT. ELLX 151350Z 22016KT CAVOK 17/05 Q1009 TEMPO 22015G25KT
VFR 17°C / 5°C 220º 16kt 9700m - Few Clouds 4900ft
Scattered Clouds 6200ft
1009 No Significant change ELLX 151320Z 22016KT 9999 FEW049 SCT062 17/05 Q1009 NOSIG
VFR 16°C / 5°C 220º 15kt 9700m - Few Clouds 4800ft
Scattered Clouds 5700ft
1009 Temporary: Wind 230º 15kt. Gust 25KT. ELLX 151250Z 22015KT 9999 FEW048 SCT057 16/05 Q1009 TEMPO 23015G25KT
VFR 16°C / 5°C 230º 13kt Gust 23kt 9700m - Few Clouds 4500ft
Scattered Clouds 6200ft
1009 Temporary: Wind 230º 15kt. Gust 25KT. ELLX 151220Z 23013G23KT 9999 FEW045 SCT062 16/05 Q1009 TEMPO 23015G25KT
VFR 16°C / 5°C 230º 14kt 9700m - Scattered Clouds 4400ft 1009 Temporary: Wind 230º 15kt. Gust 25KT. ELLX 151150Z 23014KT 9999 SCT044 16/05 Q1009 TEMPO 23015G25KT
VFR 15°C / 5°C 220º variable 180º to 240º 16kt 9700m - Few Clouds 4300ft 1009 Temporary: Wind 230º 15kt. Gust 25KT. ELLX 151120Z 22016KT 180V240 9999 FEW043 15/05 Q1009 TEMPO 23015G25KT
VFR 15°C / 5°C 220º variable 190º to 250º 17kt 9700m - Few Clouds 4200ft 1009 No Significant change ELLX 151050Z 22017KT 190V250 9999 FEW042 15/05 Q1009 NOSIG
VFR 16°C / 6°C 250º variable 210º to 270º 18kt Gust 28kt 9700m - Scattered Clouds 4000ft 1009 Temporary: Wind 230º 15kt. Gust 25KT. ELLX 151020Z 25018G28KT 210V270 9999 SCT040 16/06 Q1009 TEMPO 23015G25KT
VFR 14°C / 6°C 230º variable 200º to 270º 13kt 9700m - Few Clouds 3700ft 1009 Temporary: Wind 230º 15kt. Gust 25KT. ELLX 150950Z 23013KT 200V270 9999 FEW037 14/06 Q1009 TEMPO 23015G25KT
VFR 14°C / 6°C 240º 17kt 9700m - Few Clouds 3400ft 1008 Temporary: Wind 230º 15kt. Gust 25KT. ELLX 150920Z 24017KT 9999 FEW034 14/06 Q1008 TEMPO 23015G25KT
VFR 14°C / 7°C 240º 17kt 9700m - Few Clouds 2900ft 1008 Temporary: Wind 230º 15kt. Gust 25KT. ELLX 150850Z 24017KT 9999 FEW029TCU 14/07 Q1008 TEMPO 23015G25KT
VFR 12°C / 7°C 240º 17kt 9700m - Few Clouds 2400ft 1008 No Significant change ELLX 150820Z 24017KT 9999 FEW024TCU 12/07 Q1008 NOSIG
VFR 13°C / 7°C 240º 14kt 9700m - Few Clouds 2700ft 1008 Temporary: Wind 230º 15kt. Gust 30KT. ELLX 150750Z 24014KT 9999 FEW027CB 13/07 Q1008 TEMPO 23015G30KT
VFR 13°C / 6°C 230º 19kt Gust 29kt 9700m - Few Clouds 2100ft 1008 Temporary: Wind 230º 15kt. Gust 30KT. ELLX 150720Z 23019G29KT 9999 FEW021CB 13/06 Q1008 TEMPO 23015G30KT
VFR 12°C / 8°C 230º 18kt 9700m - Few Clouds 2300ft 1007 Temporary: Wind 230º 15kt. Gust 30KT. ELLX 150650Z 23018KT 9999 FEW023CB 12/08 Q1007 TEMPO 23015G30KT
VFR 12°C / 8°C 240º 16kt Gust 26kt 9700m - Few Clouds 2000ft 1007 Temporary: Wind 230º 15kt. Gust 30KT. ELLX 150620Z 24016G26KT 9999 FEW020CB 12/08 Q1007 TEMPO 23015G30KT
VFR 12°C / 8°C 230º 17kt 9700m - Few Clouds 1500ft 1007 Temporary: Wind 230º 15kt. Gust 25KT. ELLX 150550Z 23017KT 9999 FEW015 12/08 Q1007 TEMPO 23015G25KT
MVFR 11°C / 9°C 220º 14kt 9700m - Broken Clouds 1500ft 1006 Temporary: Wind 230º 15kt. Gust 25KT. ELLX 150520Z 22014KT 9999 BKN015 11/09 Q1006 TEMPO 23015G25KT
VFR 11°C / 9°C 230º 13kt 9700m - Few Clouds 1800ft 1006 Temporary: Wind 230º 15kt. Gust 25KT. ELLX 150450Z 23013KT 9999 FEW018 11/09 Q1006 TEMPO 23015G25KT

VFR

15°C / 6°C

[Więcej]
Wiatr 220º 9kt
Widzialność 9700m
Pogoda -
Chmury Clouds and Visibility OK
Ciśnienie 1009
Zmień No Significant change
Surowy ELLX 151620Z 22009KT CAVOK 15/06 Q1009 NOSIG

VFR

15°C / 6°C

[Więcej]
Wiatr 220º 13kt
Widzialność 9700m
Pogoda -
Chmury Few Clouds 4800ft
Broken Clouds 5500ft
Ciśnienie 1009
Zmień No Significant change
Surowy ELLX 151550Z 22013KT 9999 FEW048 BKN055 15/06 Q1009 NOSIG

VFR

16°C / 5°C

[Więcej]
Wiatr 230º variable 190º to 250º 14kt
Widzialność 9700m
Pogoda -
Chmury Clouds and Visibility OK
Ciśnienie 1009
Zmień Temporary: Wind 220º 15kt. Gust 25KT.
Surowy ELLX 151520Z 23014KT 190V250 CAVOK 16/05 Q1009 TEMPO 22015G25KT

VFR

16°C / 5°C

[Więcej]
Wiatr 220º 14kt
Widzialność 9700m
Pogoda -
Chmury Clouds and Visibility OK
Ciśnienie 1009
Zmień Temporary: Wind 220º 15kt. Gust 25KT.
Surowy ELLX 151450Z 22014KT CAVOK 16/05 Q1009 TEMPO 22015G25KT

VFR

16°C / 5°C

[Więcej]
Wiatr 220º 13kt
Widzialność 9700m
Pogoda -
Chmury Clouds and Visibility OK
Ciśnienie 1009
Zmień Temporary: Wind 220º 15kt. Gust 25KT.
Surowy ELLX 151420Z 22013KT CAVOK 16/05 Q1009 TEMPO 22015G25KT

VFR

17°C / 5°C

[Więcej]
Wiatr 220º 16kt
Widzialność 9700m
Pogoda -
Chmury Clouds and Visibility OK
Ciśnienie 1009
Zmień Temporary: Wind 220º 15kt. Gust 25KT.
Surowy ELLX 151350Z 22016KT CAVOK 17/05 Q1009 TEMPO 22015G25KT

VFR

17°C / 5°C

[Więcej]
Wiatr 220º 16kt
Widzialność 9700m
Pogoda -
Chmury Few Clouds 4900ft
Scattered Clouds 6200ft
Ciśnienie 1009
Zmień No Significant change
Surowy ELLX 151320Z 22016KT 9999 FEW049 SCT062 17/05 Q1009 NOSIG

VFR

16°C / 5°C

[Więcej]
Wiatr 220º 15kt
Widzialność 9700m
Pogoda -
Chmury Few Clouds 4800ft
Scattered Clouds 5700ft
Ciśnienie 1009
Zmień Temporary: Wind 230º 15kt. Gust 25KT.
Surowy ELLX 151250Z 22015KT 9999 FEW048 SCT057 16/05 Q1009 TEMPO 23015G25KT

VFR

16°C / 5°C

[Więcej]
Wiatr 230º 13kt Gust 23kt
Widzialność 9700m
Pogoda -
Chmury Few Clouds 4500ft
Scattered Clouds 6200ft
Ciśnienie 1009
Zmień Temporary: Wind 230º 15kt. Gust 25KT.
Surowy ELLX 151220Z 23013G23KT 9999 FEW045 SCT062 16/05 Q1009 TEMPO 23015G25KT

VFR

16°C / 5°C

[Więcej]
Wiatr 230º 14kt
Widzialność 9700m
Pogoda -
Chmury Scattered Clouds 4400ft
Ciśnienie 1009
Zmień Temporary: Wind 230º 15kt. Gust 25KT.
Surowy ELLX 151150Z 23014KT 9999 SCT044 16/05 Q1009 TEMPO 23015G25KT

VFR

15°C / 5°C

[Więcej]
Wiatr 220º variable 180º to 240º 16kt
Widzialność 9700m
Pogoda -
Chmury Few Clouds 4300ft
Ciśnienie 1009
Zmień Temporary: Wind 230º 15kt. Gust 25KT.
Surowy ELLX 151120Z 22016KT 180V240 9999 FEW043 15/05 Q1009 TEMPO 23015G25KT

VFR

15°C / 5°C

[Więcej]
Wiatr 220º variable 190º to 250º 17kt
Widzialność 9700m
Pogoda -
Chmury Few Clouds 4200ft
Ciśnienie 1009
Zmień No Significant change
Surowy ELLX 151050Z 22017KT 190V250 9999 FEW042 15/05 Q1009 NOSIG

VFR

16°C / 6°C

[Więcej]
Wiatr 250º variable 210º to 270º 18kt Gust 28kt
Widzialność 9700m
Pogoda -
Chmury Scattered Clouds 4000ft
Ciśnienie 1009
Zmień Temporary: Wind 230º 15kt. Gust 25KT.
Surowy ELLX 151020Z 25018G28KT 210V270 9999 SCT040 16/06 Q1009 TEMPO 23015G25KT

VFR

14°C / 6°C

[Więcej]
Wiatr 230º variable 200º to 270º 13kt
Widzialność 9700m
Pogoda -
Chmury Few Clouds 3700ft
Ciśnienie 1009
Zmień Temporary: Wind 230º 15kt. Gust 25KT.
Surowy ELLX 150950Z 23013KT 200V270 9999 FEW037 14/06 Q1009 TEMPO 23015G25KT

VFR

14°C / 6°C

[Więcej]
Wiatr 240º 17kt
Widzialność 9700m
Pogoda -
Chmury Few Clouds 3400ft
Ciśnienie 1008
Zmień Temporary: Wind 230º 15kt. Gust 25KT.
Surowy ELLX 150920Z 24017KT 9999 FEW034 14/06 Q1008 TEMPO 23015G25KT

VFR

14°C / 7°C

[Więcej]
Wiatr 240º 17kt
Widzialność 9700m
Pogoda -
Chmury Few Clouds 2900ft
Ciśnienie 1008
Zmień Temporary: Wind 230º 15kt. Gust 25KT.
Surowy ELLX 150850Z 24017KT 9999 FEW029TCU 14/07 Q1008 TEMPO 23015G25KT

VFR

12°C / 7°C

[Więcej]
Wiatr 240º 17kt
Widzialność 9700m
Pogoda -
Chmury Few Clouds 2400ft
Ciśnienie 1008
Zmień No Significant change
Surowy ELLX 150820Z 24017KT 9999 FEW024TCU 12/07 Q1008 NOSIG

VFR

13°C / 7°C

[Więcej]
Wiatr 240º 14kt
Widzialność 9700m
Pogoda -
Chmury Few Clouds 2700ft
Ciśnienie 1008
Zmień Temporary: Wind 230º 15kt. Gust 30KT.
Surowy ELLX 150750Z 24014KT 9999 FEW027CB 13/07 Q1008 TEMPO 23015G30KT

VFR

13°C / 6°C

[Więcej]
Wiatr 230º 19kt Gust 29kt
Widzialność 9700m
Pogoda -
Chmury Few Clouds 2100ft
Ciśnienie 1008
Zmień Temporary: Wind 230º 15kt. Gust 30KT.
Surowy ELLX 150720Z 23019G29KT 9999 FEW021CB 13/06 Q1008 TEMPO 23015G30KT

VFR

12°C / 8°C

[Więcej]
Wiatr 230º 18kt
Widzialność 9700m
Pogoda -
Chmury Few Clouds 2300ft
Ciśnienie 1007
Zmień Temporary: Wind 230º 15kt. Gust 30KT.
Surowy ELLX 150650Z 23018KT 9999 FEW023CB 12/08 Q1007 TEMPO 23015G30KT

VFR

12°C / 8°C

[Więcej]
Wiatr 240º 16kt Gust 26kt
Widzialność 9700m
Pogoda -
Chmury Few Clouds 2000ft
Ciśnienie 1007
Zmień Temporary: Wind 230º 15kt. Gust 30KT.
Surowy ELLX 150620Z 24016G26KT 9999 FEW020CB 12/08 Q1007 TEMPO 23015G30KT

VFR

12°C / 8°C

[Więcej]
Wiatr 230º 17kt
Widzialność 9700m
Pogoda -
Chmury Few Clouds 1500ft
Ciśnienie 1007
Zmień Temporary: Wind 230º 15kt. Gust 25KT.
Surowy ELLX 150550Z 23017KT 9999 FEW015 12/08 Q1007 TEMPO 23015G25KT

MVFR

11°C / 9°C

[Więcej]
Wiatr 220º 14kt
Widzialność 9700m
Pogoda -
Chmury Broken Clouds 1500ft
Ciśnienie 1006
Zmień Temporary: Wind 230º 15kt. Gust 25KT.
Surowy ELLX 150520Z 22014KT 9999 BKN015 11/09 Q1006 TEMPO 23015G25KT

VFR

11°C / 9°C

[Więcej]
Wiatr 230º 13kt
Widzialność 9700m
Pogoda -
Chmury Few Clouds 1800ft
Ciśnienie 1006
Zmień Temporary: Wind 230º 15kt. Gust 25KT.
Surowy ELLX 150450Z 23013KT 9999 FEW018 11/09 Q1006 TEMPO 23015G25KT

TAF dla Blaschette (ELLX)

From till


From till Wind 230º 15kt. Gust 25kt. Visibility 9700m. Scattered Clouds 4000ft.
Becoming from till
With 30% probability, Temporarly from till Wind 200º 15kt. Gust 25kt. Showers Rain . Broken Clouds 1300ft.
Temporarly from till Broken Clouds 900ft.
With 40% probability, Temporarly from till Showers Rain . Broken Clouds 1200ft.

Surowy: TAF ELLX 151100Z 1512/1618 23015G25KT 9999 SCT040 BECMG 1515/1517 22010KT PROB30 TEMPO 1519/1603 20015G25KT SHRA BKN013TCU TEMPO 1603/1610 BKN009 PROB40 TEMPO 1611/1615 SHRA BKN012TCU

rainNOW: Deszcz pada teraz na Blaschette i okolice (promień 25 km)

0.0 mm
0.0 mm
0.0 mm
0.0 mm
0.0 mm
0.0 mm
0.0 mm
0.0 mm
0.0 mm
0.0 mm
0.0 mm
0.0 mm

Radar i prognoza opadów na teraz dla Blaschette

Mżawka
Lekkie
Umiarkowane
Intensywne
Bardzo Intensywne
Grad

Wskaźnik lokalizacji jest umieszczony na Blaschette. Ta animacja pokazuje radar opadów dla wybranego zakresu czasu, jak również prognozę 2h. Pomarańczowe krzyże oznaczają wyładowania atmosferyczne. Dane dostarczone przez nowcast.de (dostępne w USA, Europie, Australii). Mżawka lub lekki opad śniegu może być niewidoczny dla radaru. Intensywność opadów jest oznaczona kolorami, od turkusowego do czerwonego.

Aktualne zdjęcia satelitarne i zdjęcia opadów deszczu dla Blaschette, Luksemburg

Wskaźnik lokalizacji znajduje się na Blaschette. [Więcej]

Obraz satelitarny w czasie rzeczywistym łączy światło widzialne w ciągu dnia z promieniowaniem podczerwonym w nocy. W nocy obraz nie jest ciemny, ponieważ promieniowanie podczerwone może wykrywać różnice temperatur. Niestety niskie chmury i mgłę trudno odróżnić od temperatury gruntu, przez co mogą być prawie niewidoczne w nocy. Zdjęcia satelitarne Meteosat dla Europy są aktualizowane w czasie rzeczywistym co 5 minut. Obrazy GOES-16/GOES-17 (Ameryka Północna i Południowa) oraz Himawari (Azja) są aktualizowane co 10 minut.

Opady są szacowane na podstawie radarów i satelitów. Szacunki opadów z satelitów są mniej dokładne w nocy niż w ciągu dnia.

© 2024 meteoblue, NOAA Satellites GOES-16 and EUMETSAT. Dane dot. błyskawic dostarczone przez nowcast.

Powrót do góry
×
Hej tam,
wygląda na to, że używasz blokera reklam.

Reklama jest niezbędna do utrzymania naszej darmowej strony internetowej z wyjątkową szczegółowością i dokładnością.

Proszę whitelist www.meteoblue.com na swoim blokerze reklam lub rozważyć zakup jednego z naszych produktów:

Masz już subskrypcję?
Więc proszę login.